sensor_id;sensor_type;location;lat;lon;timestamp;P1;durP1;ratioP1;P2;durP2;ratioP2
51525;SDS011;37611;51.794;21.590;2022-07-23T00:02:21;25.90;;;23.20;;
51525;SDS011;37611;51.794;21.590;2022-07-23T00:06:23;25.70;;;22.90;;
51525;SDS011;37611;51.794;21.590;2022-07-23T00:10:25;22.20;;;20.00;;
51525;SDS011;37611;51.794;21.590;2022-07-23T00:14:27;22.30;;;20.30;;
51525;SDS011;37611;51.794;21.590;2022-07-23T00:18:29;22.70;;;20.60;;
51525;SDS011;37611;51.794;21.590;2022-07-23T00:22:31;23.90;;;21.50;;
51525;SDS011;37611;51.794;21.590;2022-07-23T00:26:32;25.20;;;20.90;;
51525;SDS011;37611;51.794;21.590;2022-07-23T00:30:34;23.50;;;21.20;;
51525;SDS011;37611;51.794;21.590;2022-07-23T00:34:36;23.40;;;21.10;;
51525;SDS011;37611;51.794;21.590;2022-07-23T00:38:37;22.50;;;20.20;;
51525;SDS011;37611;51.794;21.590;2022-07-23T00:42:39;21.60;;;19.50;;
51525;SDS011;37611;51.794;21.590;2022-07-23T00:46:48;23.10;;;20.90;;
51525;SDS011;37611;51.794;21.590;2022-07-23T00:50:54;24.00;;;21.50;;
51525;SDS011;37611;51.794;21.590;2022-07-23T00:54:56;22.70;;;20.50;;
51525;SDS011;37611;51.794;21.590;2022-07-23T00:58:59;22.10;;;20.00;;
51525;SDS011;37611;51.794;21.590;2022-07-23T01:03:01;21.60;;;19.70;;
51525;SDS011;37611;51.794;21.590;2022-07-23T01:07:03;22.30;;;20.00;;
51525;SDS011;37611;51.794;21.590;2022-07-23T01:11:05;23.80;;;21.50;;
51525;SDS011;37611;51.794;21.590;2022-07-23T01:15:07;22.60;;;20.60;;
51525;SDS011;37611;51.794;21.590;2022-07-23T01:19:09;23.60;;;21.10;;
51525;SDS011;37611;51.794;21.590;2022-07-23T01:23:11;23.90;;;21.80;;
51525;SDS011;37611;51.794;21.590;2022-07-23T01:27:13;22.80;;;20.70;;
51525;SDS011;37611;51.794;21.590;2022-07-23T01:31:15;22.30;;;20.30;;
51525;SDS011;37611;51.794;21.590;2022-07-23T01:35:17;23.90;;;21.50;;
51525;SDS011;37611;51.794;21.590;2022-07-23T01:39:18;23.10;;;21.10;;
51525;SDS011;37611;51.794;21.590;2022-07-23T01:43:20;23.20;;;21.00;;
51525;SDS011;37611;51.794;21.590;2022-07-23T01:47:22;23.00;;;20.60;;
51525;SDS011;37611;51.794;21.590;2022-07-23T01:51:24;24.30;;;22.00;;
51525;SDS011;37611;51.794;21.590;2022-07-23T01:55:25;22.80;;;20.70;;
51525;SDS011;37611;51.794;21.590;2022-07-23T01:59:27;21.70;;;19.60;;
51525;SDS011;37611;51.794;21.590;2022-07-23T02:03:29;24.50;;;22.00;;
51525;SDS011;37611;51.794;21.590;2022-07-23T02:07:32;26.20;;;23.70;;
51525;SDS011;37611;51.794;21.590;2022-07-23T02:11:33;24.10;;;21.70;;
51525;SDS011;37611;51.794;21.590;2022-07-23T02:15:35;23.30;;;20.90;;
51525;SDS011;37611;51.794;21.590;2022-07-23T02:19:37;24.50;;;22.10;;
51525;SDS011;37611;51.794;21.590;2022-07-23T02:23:38;24.20;;;21.90;;
51525;SDS011;37611;51.794;21.590;2022-07-23T02:27:40;23.00;;;20.90;;
51525;SDS011;37611;51.794;21.590;2022-07-23T02:31:42;23.70;;;21.60;;
51525;SDS011;37611;51.794;21.590;2022-07-23T02:35:44;23.80;;;21.30;;
51525;SDS011;37611;51.794;21.590;2022-07-23T02:39:46;23.90;;;21.70;;
51525;SDS011;37611;51.794;21.590;2022-07-23T02:43:49;26.30;;;23.60;;
51525;SDS011;37611;51.794;21.590;2022-07-23T02:47:51;23.90;;;21.70;;
51525;SDS011;37611;51.794;21.590;2022-07-23T02:51:53;23.90;;;21.70;;
51525;SDS011;37611;51.794;21.590;2022-07-23T02:55:55;23.00;;;20.90;;
51525;SDS011;37611;51.794;21.590;2022-07-23T02:59:56;23.10;;;20.80;;
51525;SDS011;37611;51.794;21.590;2022-07-23T03:03:58;23.90;;;21.70;;
51525;SDS011;37611;51.794;21.590;2022-07-23T03:08:00;24.50;;;22.20;;
51525;SDS011;37611;51.794;21.590;2022-07-23T03:12:02;24.60;;;22.30;;
51525;SDS011;37611;51.794;21.590;2022-07-23T03:16:04;24.70;;;22.20;;
51525;SDS011;37611;51.794;21.590;2022-07-23T03:20:07;24.10;;;21.90;;
51525;SDS011;37611;51.794;21.590;2022-07-23T03:24:09;24.50;;;22.20;;
51525;SDS011;37611;51.794;21.590;2022-07-23T03:28:11;25.00;;;22.60;;
51525;SDS011;37611;51.794;21.590;2022-07-23T03:32:13;26.20;;;23.90;;
51525;SDS011;37611;51.794;21.590;2022-07-23T03:36:14;24.50;;;22.10;;
51525;SDS011;37611;51.794;21.590;2022-07-23T03:40:16;34.40;;;24.50;;
51525;SDS011;37611;51.794;21.590;2022-07-23T03:44:18;39.00;;;25.50;;
51525;SDS011;37611;51.794;21.590;2022-07-23T03:48:19;31.50;;;25.50;;
51525;SDS011;37611;51.794;21.590;2022-07-23T03:52:21;31.40;;;26.20;;
51525;SDS011;37611;51.794;21.590;2022-07-23T03:56:23;33.70;;;24.10;;
51525;SDS011;37611;51.794;21.590;2022-07-23T04:00:25;26.60;;;23.70;;
51525;SDS011;37611;51.794;21.590;2022-07-23T04:04:27;26.40;;;23.40;;
51525;SDS011;37611;51.794;21.590;2022-07-23T04:08:28;25.90;;;22.70;;
51525;SDS011;37611;51.794;21.590;2022-07-23T04:12:30;26.50;;;23.80;;
51525;SDS011;37611;51.794;21.590;2022-07-23T04:16:32;26.20;;;23.70;;
51525;SDS011;37611;51.794;21.590;2022-07-23T04:20:33;25.70;;;22.90;;
51525;SDS011;37611;51.794;21.590;2022-07-23T04:24:35;28.00;;;24.50;;
51525;SDS011;37611;51.794;21.590;2022-07-23T04:28:37;25.40;;;23.00;;
51525;SDS011;37611;51.794;21.590;2022-07-23T04:32:39;25.20;;;22.50;;
51525;SDS011;37611;51.794;21.590;2022-07-23T04:36:41;25.50;;;23.20;;
51525;SDS011;37611;51.794;21.590;2022-07-23T04:40:43;26.70;;;24.30;;
51525;SDS011;37611;51.794;21.590;2022-07-23T04:44:45;28.30;;;25.40;;
51525;SDS011;37611;51.794;21.590;2022-07-23T04:48:46;25.80;;;23.20;;
51525;SDS011;37611;51.794;21.590;2022-07-23T04:52:48;24.80;;;22.50;;
51525;SDS011;37611;51.794;21.590;2022-07-23T04:56:50;25.40;;;23.10;;
51525;SDS011;37611;51.794;21.590;2022-07-23T05:00:52;26.60;;;24.10;;
51525;SDS011;37611;51.794;21.590;2022-07-23T05:04:53;25.60;;;23.20;;
51525;SDS011;37611;51.794;21.590;2022-07-23T05:08:55;26.60;;;24.00;;
51525;SDS011;37611;51.794;21.590;2022-07-23T05:12:57;27.80;;;25.40;;
51525;SDS011;37611;51.794;21.590;2022-07-23T05:16:58;29.10;;;26.50;;
51525;SDS011;37611;51.794;21.590;2022-07-23T05:21:00;31.00;;;27.90;;
51525;SDS011;37611;51.794;21.590;2022-07-23T05:25:02;28.60;;;26.10;;
51525;SDS011;37611;51.794;21.590;2022-07-23T05:29:06;29.80;;;26.80;;
51525;SDS011;37611;51.794;21.590;2022-07-23T05:33:07;29.90;;;26.70;;
51525;SDS011;37611;51.794;21.590;2022-07-23T05:37:09;31.90;;;28.80;;
51525;SDS011;37611;51.794;21.590;2022-07-23T05:41:11;27.70;;;25.00;;
51525;SDS011;37611;51.794;21.590;2022-07-23T05:45:13;25.90;;;23.70;;
51525;SDS011;37611;51.794;21.590;2022-07-23T05:49:15;24.50;;;21.90;;
51525;SDS011;37611;51.794;21.590;2022-07-23T05:53:16;19.70;;;17.90;;
51525;SDS011;37611;51.794;21.590;2022-07-23T05:57:18;20.50;;;17.50;;
51525;SDS011;37611;51.794;21.590;2022-07-23T06:01:20;18.20;;;16.70;;
51525;SDS011;37611;51.794;21.590;2022-07-23T06:05:22;17.80;;;16.10;;
51525;SDS011;37611;51.794;21.590;2022-07-23T06:09:24;16.90;;;15.40;;
51525;SDS011;37611;51.794;21.590;2022-07-23T06:13:26;17.10;;;15.40;;
51525;SDS011;37611;51.794;21.590;2022-07-23T06:17:28;16.00;;;14.60;;
51525;SDS011;37611;51.794;21.590;2022-07-23T06:21:30;15.50;;;14.00;;
51525;SDS011;37611;51.794;21.590;2022-07-23T06:25:31;16.80;;;14.90;;
51525;SDS011;37611;51.794;21.590;2022-07-23T06:29:33;17.10;;;15.60;;
51525;SDS011;37611;51.794;21.590;2022-07-23T06:33:35;16.90;;;15.30;;
51525;SDS011;37611;51.794;21.590;2022-07-23T06:37:37;17.20;;;15.80;;
51525;SDS011;37611;51.794;21.590;2022-07-23T06:41:38;19.30;;;16.90;;
51525;SDS011;37611;51.794;21.590;2022-07-23T06:45:40;17.90;;;16.40;;
51525;SDS011;37611;51.794;21.590;2022-07-23T06:49:42;17.70;;;16.10;;
51525;SDS011;37611;51.794;21.590;2022-07-23T06:53:43;18.30;;;16.70;;
51525;SDS011;37611;51.794;21.590;2022-07-23T06:57:45;17.00;;;15.40;;
51525;SDS011;37611;51.794;21.590;2022-07-23T07:01:47;17.10;;;15.60;;
51525;SDS011;37611;51.794;21.590;2022-07-23T07:05:49;17.00;;;15.30;;
51525;SDS011;37611;51.794;21.590;2022-07-23T07:09:51;15.60;;;14.20;;
51525;SDS011;37611;51.794;21.590;2022-07-23T07:13:52;14.30;;;13.10;;
51525;SDS011;37611;51.794;21.590;2022-07-23T07:17:54;13.30;;;12.00;;
51525;SDS011;37611;51.794;21.590;2022-07-23T07:21:56;15.10;;;11.70;;
51525;SDS011;37611;51.794;21.590;2022-07-23T07:25:58;12.00;;;10.80;;
51525;SDS011;37611;51.794;21.590;2022-07-23T07:29:59;12.50;;;11.30;;
51525;SDS011;37611;51.794;21.590;2022-07-23T07:34:02;12.00;;;10.70;;
51525;SDS011;37611;51.794;21.590;2022-07-23T07:38:04;10.20;;;9.30;;
51525;SDS011;37611;51.794;21.590;2022-07-23T07:42:06;10.50;;;9.60;;
51525;SDS011;37611;51.794;21.590;2022-07-23T07:46:07;9.40;;;8.40;;
51525;SDS011;37611;51.794;21.590;2022-07-23T07:50:12;9.30;;;8.50;;
51525;SDS011;37611;51.794;21.590;2022-07-23T07:54:14;8.80;;;8.00;;
51525;SDS011;37611;51.794;21.590;2022-07-23T07:58:15;8.30;;;7.60;;
51525;SDS011;37611;51.794;21.590;2022-07-23T08:02:17;10.70;;;7.70;;
51525;SDS011;37611;51.794;21.590;2022-07-23T08:06:19;8.20;;;7.50;;
51525;SDS011;37611;51.794;21.590;2022-07-23T08:10:21;9.70;;;8.40;;
51525;SDS011;37611;51.794;21.590;2022-07-23T08:14:22;8.20;;;7.40;;
51525;SDS011;37611;51.794;21.590;2022-07-23T08:18:24;8.30;;;6.70;;
51525;SDS011;37611;51.794;21.590;2022-07-23T08:22:40;7.40;;;6.70;;
51525;SDS011;37611;51.794;21.590;2022-07-23T08:26:46;11.20;;;7.20;;
51525;SDS011;37611;51.794;21.590;2022-07-23T08:30:47;8.90;;;7.10;;
51525;SDS011;37611;51.794;21.590;2022-07-23T08:34:49;8.10;;;6.40;;
51525;SDS011;37611;51.794;21.590;2022-07-23T08:38:51;8.20;;;6.90;;
51525;SDS011;37611;51.794;21.590;2022-07-23T08:42:53;6.60;;;6.00;;
51525;SDS011;37611;51.794;21.590;2022-07-23T08:46:55;6.50;;;5.90;;
51525;SDS011;37611;51.794;21.590;2022-07-23T08:50:58;5.90;;;5.40;;
51525;SDS011;37611;51.794;21.590;2022-07-23T08:55:01;5.90;;;5.40;;
51525;SDS011;37611;51.794;21.590;2022-07-23T08:59:03;7.00;;;5.80;;
51525;SDS011;37611;51.794;21.590;2022-07-23T09:03:05;6.20;;;5.60;;
51525;SDS011;37611;51.794;21.590;2022-07-23T09:07:07;6.10;;;5.50;;
51525;SDS011;37611;51.794;21.590;2022-07-23T09:11:10;6.30;;;5.10;;
51525;SDS011;37611;51.794;21.590;2022-07-23T09:15:14;6.10;;;5.50;;
51525;SDS011;37611;51.794;21.590;2022-07-23T09:19:16;8.50;;;5.60;;
51525;SDS011;37611;51.794;21.590;2022-07-23T09:23:17;6.70;;;6.00;;
51525;SDS011;37611;51.794;21.590;2022-07-23T09:27:19;6.00;;;5.40;;
51525;SDS011;37611;51.794;21.590;2022-07-23T09:31:21;5.70;;;5.10;;
51525;SDS011;37611;51.794;21.590;2022-07-23T09:35:28;5.70;;;4.60;;
51525;SDS011;37611;51.794;21.590;2022-07-23T09:40:06;5.80;;;5.20;;
51525;SDS011;37611;51.794;21.590;2022-07-23T09:44:16;6.30;;;5.10;;
51525;SDS011;37611;51.794;21.590;2022-07-23T09:48:21;5.70;;;5.10;;
51525;SDS011;37611;51.794;21.590;2022-07-23T09:52:30;5.80;;;5.20;;
51525;SDS011;37611;51.794;21.590;2022-07-23T09:56:36;6.20;;;5.60;;
51525;SDS011;37611;51.794;21.590;2022-07-23T10:00:38;8.70;;;5.70;;
51525;SDS011;37611;51.794;21.590;2022-07-23T10:04:41;6.90;;;5.90;;
51525;SDS011;37611;51.794;21.590;2022-07-23T10:08:45;6.60;;;5.90;;
51525;SDS011;37611;51.794;21.590;2022-07-23T10:12:51;6.30;;;5.60;;
51525;SDS011;37611;51.794;21.590;2022-07-23T10:17:20;6.00;;;5.30;;
51525;SDS011;37611;51.794;21.590;2022-07-23T10:21:27;5.80;;;5.10;;
51525;SDS011;37611;51.794;21.590;2022-07-23T10:25:51;6.10;;;5.50;;
51525;SDS011;37611;51.794;21.590;2022-07-23T10:30:04;7.10;;;5.70;;
51525;SDS011;37611;51.794;21.590;2022-07-23T10:43:26;7.60;;;5.70;;
51525;SDS011;37611;51.794;21.590;2022-07-23T10:47:30;6.20;;;5.60;;
51525;SDS011;37611;51.794;21.590;2022-07-23T10:51:33;6.40;;;5.80;;
51525;SDS011;37611;51.794;21.590;2022-07-23T11:04:15;6.50;;;5.80;;
51525;SDS011;37611;51.794;21.590;2022-07-23T11:08:18;7.30;;;6.10;;
51525;SDS011;37611;51.794;21.590;2022-07-23T11:16:23;7.70;;;5.80;;
51525;SDS011;37611;51.794;21.590;2022-07-23T11:20:26;6.60;;;5.80;;
51525;SDS011;37611;51.794;21.590;2022-07-23T11:24:28;6.80;;;6.10;;
51525;SDS011;37611;51.794;21.590;2022-07-23T11:28:30;7.60;;;6.40;;
51525;SDS011;37611;51.794;21.590;2022-07-23T11:32:33;6.40;;;5.50;;
51525;SDS011;37611;51.794;21.590;2022-07-23T11:36:50;6.90;;;6.20;;
51525;SDS011;37611;51.794;21.590;2022-07-23T11:40:53;7.10;;;5.90;;
51525;SDS011;37611;51.794;21.590;2022-07-23T11:44:56;6.50;;;5.40;;
51525;SDS011;37611;51.794;21.590;2022-07-23T11:49:01;5.80;;;5.30;;
51525;SDS011;37611;51.794;21.590;2022-07-23T11:53:04;6.30;;;5.60;;
51525;SDS011;37611;51.794;21.590;2022-07-23T11:57:06;5.80;;;5.20;;
51525;SDS011;37611;51.794;21.590;2022-07-23T12:01:07;6.70;;;5.70;;
51525;SDS011;37611;51.794;21.590;2022-07-23T12:05:13;7.70;;;5.80;;
51525;SDS011;37611;51.794;21.590;2022-07-23T12:09:17;6.60;;;6.00;;
51525;SDS011;37611;51.794;21.590;2022-07-23T12:13:19;6.10;;;5.60;;
51525;SDS011;37611;51.794;21.590;2022-07-23T12:17:30;5.70;;;5.20;;
51525;SDS011;37611;51.794;21.590;2022-07-23T12:21:33;6.90;;;6.00;;
51525;SDS011;37611;51.794;21.590;2022-07-23T12:25:43;8.00;;;5.30;;
51525;SDS011;37611;51.794;21.590;2022-07-23T12:29:46;6.30;;;5.70;;
51525;SDS011;37611;51.794;21.590;2022-07-23T12:33:48;5.50;;;4.90;;
51525;SDS011;37611;51.794;21.590;2022-07-23T12:37:52;5.70;;;5.20;;
51525;SDS011;37611;51.794;21.590;2022-07-23T12:42:02;6.00;;;5.40;;
51525;SDS011;37611;51.794;21.590;2022-07-23T12:46:16;6.20;;;5.60;;
51525;SDS011;37611;51.794;21.590;2022-07-23T12:54:43;7.60;;;5.40;;
51525;SDS011;37611;51.794;21.590;2022-07-23T12:58:53;6.50;;;5.80;;
51525;SDS011;37611;51.794;21.590;2022-07-23T13:02:59;6.30;;;5.50;;
51525;SDS011;37611;51.794;21.590;2022-07-23T13:07:01;6.30;;;5.40;;
51525;SDS011;37611;51.794;21.590;2022-07-23T13:11:04;6.00;;;5.50;;
51525;SDS011;37611;51.794;21.590;2022-07-23T13:15:07;6.20;;;5.20;;
51525;SDS011;37611;51.794;21.590;2022-07-23T13:19:09;5.90;;;5.40;;
51525;SDS011;37611;51.794;21.590;2022-07-23T13:23:12;7.30;;;5.90;;
51525;SDS011;37611;51.794;21.590;2022-07-23T13:27:15;5.70;;;5.20;;
51525;SDS011;37611;51.794;21.590;2022-07-23T13:31:16;6.00;;;5.30;;
51525;SDS011;37611;51.794;21.590;2022-07-23T13:35:18;7.50;;;5.60;;
51525;SDS011;37611;51.794;21.590;2022-07-23T13:39:20;6.60;;;5.70;;
51525;SDS011;37611;51.794;21.590;2022-07-23T13:43:22;10.20;;;6.10;;
51525;SDS011;37611;51.794;21.590;2022-07-23T13:47:26;6.60;;;5.50;;
51525;SDS011;37611;51.794;21.590;2022-07-23T13:51:27;6.10;;;5.40;;
51525;SDS011;37611;51.794;21.590;2022-07-23T13:55:29;6.20;;;5.60;;
51525;SDS011;37611;51.794;21.590;2022-07-23T13:59:31;6.50;;;5.90;;
51525;SDS011;37611;51.794;21.590;2022-07-23T14:03:33;7.40;;;5.80;;
51525;SDS011;37611;51.794;21.590;2022-07-23T14:07:35;5.80;;;5.20;;
51525;SDS011;37611;51.794;21.590;2022-07-23T14:11:38;6.10;;;5.50;;
51525;SDS011;37611;51.794;21.590;2022-07-23T14:15:40;7.90;;;6.80;;
51525;SDS011;37611;51.794;21.590;2022-07-23T14:19:42;6.70;;;6.10;;
51525;SDS011;37611;51.794;21.590;2022-07-23T14:23:44;7.00;;;6.30;;
51525;SDS011;37611;51.794;21.590;2022-07-23T14:27:45;7.80;;;6.20;;
51525;SDS011;37611;51.794;21.590;2022-07-23T14:31:47;7.00;;;6.40;;
51525;SDS011;37611;51.794;21.590;2022-07-23T14:35:49;8.70;;;5.90;;
51525;SDS011;37611;51.794;21.590;2022-07-23T14:39:51;8.60;;;6.40;;
51525;SDS011;37611;51.794;21.590;2022-07-23T14:43:53;6.50;;;5.80;;
51525;SDS011;37611;51.794;21.590;2022-07-23T14:47:55;7.00;;;6.40;;
51525;SDS011;37611;51.794;21.590;2022-07-23T14:51:57;7.00;;;6.30;;
51525;SDS011;37611;51.794;21.590;2022-07-23T14:56:00;6.90;;;6.20;;
51525;SDS011;37611;51.794;21.590;2022-07-23T15:00:03;7.40;;;6.40;;
51525;SDS011;37611;51.794;21.590;2022-07-23T15:04:06;7.40;;;6.60;;
51525;SDS011;37611;51.794;21.590;2022-07-23T15:08:08;10.40;;;6.90;;
51525;SDS011;37611;51.794;21.590;2022-07-23T15:12:10;7.00;;;6.10;;
51525;SDS011;37611;51.794;21.590;2022-07-23T15:16:12;9.90;;;6.20;;
51525;SDS011;37611;51.794;21.590;2022-07-23T15:20:13;8.00;;;6.50;;
51525;SDS011;37611;51.794;21.590;2022-07-23T15:24:15;7.80;;;7.10;;
51525;SDS011;37611;51.794;21.590;2022-07-23T15:28:17;8.60;;;7.60;;
51525;SDS011;37611;51.794;21.590;2022-07-23T15:32:18;8.10;;;7.30;;
51525;SDS011;37611;51.794;21.590;2022-07-23T15:36:20;8.30;;;7.50;;
51525;SDS011;37611;51.794;21.590;2022-07-23T15:40:22;10.10;;;7.90;;
51525;SDS011;37611;51.794;21.590;2022-07-23T15:44:24;10.30;;;8.00;;
51525;SDS011;37611;51.794;21.590;2022-07-23T15:48:26;14.50;;;6.70;;
51525;SDS011;37611;51.794;21.590;2022-07-23T15:52:28;20.70;;;5.40;;
51525;SDS011;37611;51.794;21.590;2022-07-23T15:56:30;18.90;;;5.30;;
51525;SDS011;37611;51.794;21.590;2022-07-23T16:00:32;11.60;;;4.20;;
51525;SDS011;37611;51.794;21.590;2022-07-23T16:04:34;6.40;;;3.80;;
51525;SDS011;37611;51.794;21.590;2022-07-23T16:08:36;7.50;;;3.90;;
51525;SDS011;37611;51.794;21.590;2022-07-23T16:12:38;7.40;;;3.70;;
51525;SDS011;37611;51.794;21.590;2022-07-23T16:16:40;8.00;;;4.40;;
51525;SDS011;37611;51.794;21.590;2022-07-23T16:20:43;6.30;;;4.10;;
51525;SDS011;37611;51.794;21.590;2022-07-23T16:24:44;10.50;;;5.00;;
51525;SDS011;37611;51.794;21.590;2022-07-23T16:28:46;9.60;;;6.30;;
51525;SDS011;37611;51.794;21.590;2022-07-23T16:32:48;10.30;;;6.20;;
51525;SDS011;37611;51.794;21.590;2022-07-23T16:36:50;9.00;;;6.80;;
51525;SDS011;37611;51.794;21.590;2022-07-23T16:40:52;7.70;;;6.10;;
51525;SDS011;37611;51.794;21.590;2022-07-23T16:44:54;7.50;;;5.90;;
51525;SDS011;37611;51.794;21.590;2022-07-23T16:48:56;8.40;;;6.20;;
51525;SDS011;37611;51.794;21.590;2022-07-23T16:52:58;9.60;;;6.80;;
51525;SDS011;37611;51.794;21.590;2022-07-23T16:56:59;12.20;;;6.10;;
51525;SDS011;37611;51.794;21.590;2022-07-23T17:01:02;7.00;;;5.70;;
51525;SDS011;37611;51.794;21.590;2022-07-23T17:05:04;7.30;;;5.60;;
51525;SDS011;37611;51.794;21.590;2022-07-23T17:09:08;8.30;;;6.50;;
51525;SDS011;37611;51.794;21.590;2022-07-23T17:13:10;9.50;;;5.50;;
51525;SDS011;37611;51.794;21.590;2022-07-23T17:17:12;8.90;;;7.30;;
51525;SDS011;37611;51.794;21.590;2022-07-23T17:21:14;7.60;;;6.50;;
51525;SDS011;37611;51.794;21.590;2022-07-23T17:25:16;7.50;;;5.90;;
51525;SDS011;37611;51.794;21.590;2022-07-23T17:29:20;11.00;;;7.20;;
51525;SDS011;37611;51.794;21.590;2022-07-23T17:33:22;9.40;;;7.30;;
51525;SDS011;37611;51.794;21.590;2022-07-23T17:37:23;7.10;;;6.40;;
51525;SDS011;37611;51.794;21.590;2022-07-23T17:41:25;10.10;;;6.90;;
51525;SDS011;37611;51.794;21.590;2022-07-23T17:45:27;9.10;;;8.10;;
51525;SDS011;37611;51.794;21.590;2022-07-23T17:49:28;9.20;;;7.70;;
51525;SDS011;37611;51.794;21.590;2022-07-23T17:53:30;10.40;;;9.10;;
51525;SDS011;37611;51.794;21.590;2022-07-23T17:57:32;8.80;;;7.90;;
51525;SDS011;37611;51.794;21.590;2022-07-23T18:01:34;9.80;;;8.90;;
51525;SDS011;37611;51.794;21.590;2022-07-23T18:05:37;11.30;;;8.20;;
51525;SDS011;37611;51.794;21.590;2022-07-23T18:09:40;9.60;;;8.70;;
51525;SDS011;37611;51.794;21.590;2022-07-23T18:13:41;9.40;;;7.30;;
51525;SDS011;37611;51.794;21.590;2022-07-23T18:17:43;8.60;;;7.90;;
51525;SDS011;37611;51.794;21.590;2022-07-23T18:21:45;7.60;;;6.90;;
51525;SDS011;37611;51.794;21.590;2022-07-23T18:25:46;9.50;;;8.10;;
51525;SDS011;37611;51.794;21.590;2022-07-23T18:29:48;7.80;;;7.10;;
51525;SDS011;37611;51.794;21.590;2022-07-23T18:33:50;8.40;;;7.60;;
51525;SDS011;37611;51.794;21.590;2022-07-23T18:37:52;8.20;;;7.40;;
51525;SDS011;37611;51.794;21.590;2022-07-23T18:41:54;7.70;;;7.00;;
51525;SDS011;37611;51.794;21.590;2022-07-23T18:45:55;8.80;;;7.00;;
51525;SDS011;37611;51.794;21.590;2022-07-23T18:49:59;8.10;;;7.40;;
51525;SDS011;37611;51.794;21.590;2022-07-23T18:54:00;8.60;;;7.20;;
51525;SDS011;37611;51.794;21.590;2022-07-23T18:58:04;7.70;;;7.00;;
51525;SDS011;37611;51.794;21.590;2022-07-23T19:02:06;8.40;;;7.50;;
51525;SDS011;37611;51.794;21.590;2022-07-23T19:06:08;7.30;;;6.60;;
51525;SDS011;37611;51.794;21.590;2022-07-23T19:10:10;8.80;;;6.70;;
51525;SDS011;37611;51.794;21.590;2022-07-23T19:14:12;8.80;;;7.10;;
51525;SDS011;37611;51.794;21.590;2022-07-23T19:18:14;9.10;;;7.70;;
51525;SDS011;37611;51.794;21.590;2022-07-23T19:22:16;8.30;;;7.40;;
51525;SDS011;37611;51.794;21.590;2022-07-23T19:26:18;7.90;;;7.00;;
51525;SDS011;37611;51.794;21.590;2022-07-23T19:30:20;11.00;;;7.50;;
51525;SDS011;37611;51.794;21.590;2022-07-23T19:34:22;8.40;;;7.50;;
51525;SDS011;37611;51.794;21.590;2022-07-23T19:38:24;9.80;;;7.90;;
51525;SDS011;37611;51.794;21.590;2022-07-23T19:42:25;10.40;;;9.10;;
51525;SDS011;37611;51.794;21.590;2022-07-23T19:46:27;9.80;;;8.00;;
51525;SDS011;37611;51.794;21.590;2022-07-23T19:50:29;15.20;;;11.00;;
51525;SDS011;37611;51.794;21.590;2022-07-23T19:54:31;9.50;;;8.60;;
51525;SDS011;37611;51.794;21.590;2022-07-23T19:58:32;9.60;;;8.20;;
51525;SDS011;37611;51.794;21.590;2022-07-23T20:02:34;9.50;;;8.60;;
51525;SDS011;37611;51.794;21.590;2022-07-23T20:06:36;11.40;;;8.90;;
51525;SDS011;37611;51.794;21.590;2022-07-23T20:10:38;10.80;;;9.50;;
51525;SDS011;37611;51.794;21.590;2022-07-23T20:14:40;10.20;;;8.90;;
51525;SDS011;37611;51.794;21.590;2022-07-23T20:18:42;11.00;;;9.60;;
51525;SDS011;37611;51.794;21.590;2022-07-23T20:22:44;9.60;;;8.70;;
51525;SDS011;37611;51.794;21.590;2022-07-23T20:26:47;9.50;;;8.50;;
51525;SDS011;37611;51.794;21.590;2022-07-23T20:30:51;10.10;;;9.10;;
51525;SDS011;37611;51.794;21.590;2022-07-23T20:34:53;9.40;;;8.50;;
51525;SDS011;37611;51.794;21.590;2022-07-23T20:38:54;9.90;;;8.50;;
51525;SDS011;37611;51.794;21.590;2022-07-23T20:42:56;9.40;;;8.50;;
51525;SDS011;37611;51.794;21.590;2022-07-23T20:46:58;9.60;;;8.70;;
51525;SDS011;37611;51.794;21.590;2022-07-23T20:50:59;11.40;;;8.20;;
51525;SDS011;37611;51.794;21.590;2022-07-23T20:55:01;10.00;;;9.00;;
51525;SDS011;37611;51.794;21.590;2022-07-23T20:59:04;11.20;;;10.00;;
51525;SDS011;37611;51.794;21.590;2022-07-23T21:03:06;10.40;;;9.30;;
51525;SDS011;37611;51.794;21.590;2022-07-23T21:07:08;9.80;;;8.90;;
51525;SDS011;37611;51.794;21.590;2022-07-23T21:11:10;10.00;;;9.00;;
51525;SDS011;37611;51.794;21.590;2022-07-23T21:15:12;9.80;;;8.80;;
51525;SDS011;37611;51.794;21.590;2022-07-23T21:19:14;11.10;;;8.40;;
51525;SDS011;37611;51.794;21.590;2022-07-23T21:23:16;10.40;;;8.90;;
51525;SDS011;37611;51.794;21.590;2022-07-23T21:27:18;10.90;;;9.60;;
51525;SDS011;37611;51.794;21.590;2022-07-23T21:31:20;10.50;;;8.70;;
51525;SDS011;37611;51.794;21.590;2022-07-23T21:35:22;9.60;;;8.70;;
51525;SDS011;37611;51.794;21.590;2022-07-23T21:39:23;9.70;;;8.70;;
51525;SDS011;37611;51.794;21.590;2022-07-23T21:43:25;8.90;;;8.10;;
51525;SDS011;37611;51.794;21.590;2022-07-23T21:47:27;8.30;;;7.60;;
51525;SDS011;37611;51.794;21.590;2022-07-23T21:51:29;9.40;;;8.50;;
51525;SDS011;37611;51.794;21.590;2022-07-23T21:55:31;8.40;;;7.60;;
51525;SDS011;37611;51.794;21.590;2022-07-23T21:59:33;8.70;;;7.70;;
51525;SDS011;37611;51.794;21.590;2022-07-23T22:03:34;7.90;;;7.20;;
51525;SDS011;37611;51.794;21.590;2022-07-23T22:07:36;8.40;;;7.70;;
51525;SDS011;37611;51.794;21.590;2022-07-23T22:11:38;8.70;;;7.80;;
51525;SDS011;37611;51.794;21.590;2022-07-23T22:15:40;10.60;;;7.80;;
51525;SDS011;37611;51.794;21.590;2022-07-23T22:19:42;8.20;;;7.10;;
51525;SDS011;37611;51.794;21.590;2022-07-23T22:23:43;8.30;;;7.10;;
51525;SDS011;37611;51.794;21.590;2022-07-23T22:27:46;8.00;;;7.30;;
51525;SDS011;37611;51.794;21.590;2022-07-23T22:31:48;7.90;;;7.20;;
51525;SDS011;37611;51.794;21.590;2022-07-23T22:35:50;8.50;;;7.70;;
51525;SDS011;37611;51.794;21.590;2022-07-23T22:39:52;7.40;;;6.80;;
51525;SDS011;37611;51.794;21.590;2022-07-23T22:43:54;7.40;;;6.70;;
51525;SDS011;37611;51.794;21.590;2022-07-23T22:47:55;7.60;;;6.90;;
51525;SDS011;37611;51.794;21.590;2022-07-23T22:51:57;8.40;;;6.60;;
51525;SDS011;37611;51.794;21.590;2022-07-23T22:55:59;8.30;;;6.90;;
51525;SDS011;37611;51.794;21.590;2022-07-23T23:00:00;8.50;;;7.70;;
51525;SDS011;37611;51.794;21.590;2022-07-23T23:04:02;7.80;;;7.20;;
51525;SDS011;37611;51.794;21.590;2022-07-23T23:08:04;7.50;;;6.50;;
51525;SDS011;37611;51.794;21.590;2022-07-23T23:12:06;8.50;;;7.30;;
51525;SDS011;37611;51.794;21.590;2022-07-23T23:16:08;8.10;;;7.40;;
51525;SDS011;37611;51.794;21.590;2022-07-23T23:20:11;8.50;;;7.80;;
51525;SDS011;37611;51.794;21.590;2022-07-23T23:24:13;7.70;;;7.00;;
51525;SDS011;37611;51.794;21.590;2022-07-23T23:28:14;8.40;;;7.60;;
51525;SDS011;37611;51.794;21.590;2022-07-23T23:32:16;7.70;;;7.00;;
51525;SDS011;37611;51.794;21.590;2022-07-23T23:36:18;8.30;;;7.50;;
51525;SDS011;37611;51.794;21.590;2022-07-23T23:40:19;9.20;;;8.40;;
51525;SDS011;37611;51.794;21.590;2022-07-23T23:44:21;9.10;;;8.30;;
51525;SDS011;37611;51.794;21.590;2022-07-23T23:48:23;9.30;;;8.20;;
51525;SDS011;37611;51.794;21.590;2022-07-23T23:52:25;8.90;;;8.00;;
51525;SDS011;37611;51.794;21.590;2022-07-23T23:56:27;9.70;;;8.80;;
